2OA5 weather

Fl-Airfield
Marysville, Ohio, United States

Public forecast

Using degrees Fahrenheit for public forecast. Weather courtesy of forecast.io.

METAR (pilot weather report)

Closest report is Union County Airport, 2.5 nm (4.7 km) N. Retrieved 2019/05/24 06:36 UTC (5 minutes ago):

KMRT 240636Z AUTO 00000KT 10SM CLR 17/14 A3009 RMK AO2 T01690136

TAF (pilot weather forecast)

Closest forecast is John Glenn Columbus International Airport, 23.8 nm (44.1 km) ESE. Retrieved 2019/05/24 06:36 UTC (5 minutes ago):

TAF KCMH 240535Z 2406/2506 32006KT P6SM FEW250 FM240700 35004KT P6SM FEW250 FM241300 VRB04KT P6SM SCT100 FM242200 00000KT P6SM SCT120